Time;durP1;ratioP1;P1;durP2;ratioP2;P2;SDS_P1;SDS_P2;PMS_P1;PMS_P2;Temp;Humidity;BMP_temperature;BMP_pressure;BME280_temperature;BME280_humidity;BME280_pressure;Samples;Min_cycle;Max_cycle;Signal;HPM_P1;HPM_P2
2020/12/14 01:23:21;;;;;;;4.18;1.50;;;7.10;99.90;;;7.04;100.00;100361.56;2384915;23;20544;-91
2020/12/14 01:31:02;;;;;;;3.25;1.95;;;7.10;99.90;;;7.08;100.00;100352.06;4846023;29;20053;-92
2020/12/14 01:37:56;;;;;;;4.63;1.70;;;7.10;99.90;;;7.04;100.00;100340.75;4852664;29;20098;-92
2020/12/14 01:41:09;;;;;;;2.20;1.35;;;7.10;99.90;;;7.00;100.00;100346.75;4825436;29;20038;-91
2020/12/14 01:43:35;;;;;;;6.60;1.50;;;7.10;99.90;;;7.02;100.00;100350.09;4828572;29;20482;-91
2020/12/14 01:50:40;;;;;;;2.53;1.40;;;7.20;99.90;;;7.10;100.00;100355.41;4834564;29;20041;-91
2020/12/14 02:01:26;;;;;;;2.53;1.95;;;7.20;99.90;;;7.30;100.00;100353.78;4800310;30;20084;-92
2020/12/14 02:04:23;;;;;;;2.95;1.23;;;7.30;99.90;;;7.27;100.00;100359.56;4805013;29;20138;-90
2020/12/14 02:10:43;;;;;;;6.85;1.35;;;7.30;99.90;;;7.25;100.00;100357.03;4799817;30;20042;-90
2020/12/14 02:13:12;;;;;;;4.93;1.63;;;7.30;99.90;;;7.32;100.00;100346.28;4769391;30;20138;-90
2020/12/14 02:15:48;;;;;;;4.43;1.85;;;7.40;99.90;;;7.39;100.00;100357.19;4773625;30;20096;-90
2020/12/14 02:18:14;;;;;;;5.55;1.30;;;7.30;99.90;;;7.34;100.00;100349.63;4767049;30;20470;-90
2020/12/14 02:20:40;;;;;;;4.72;2.00;;;7.40;99.90;;;7.40;100.00;100353.44;4766585;30;20066;-90
2020/12/14 02:23:06;;;;;;;2.92;1.38;;;7.80;99.90;;;7.32;100.00;100350.88;4782380;29;20044;-90
2020/12/14 02:26:16;;;;;;;1.73;1.23;;;7.60;99.90;;;7.32;100.00;100349.00;4791038;29;20038;-91
2020/12/14 02:28:42;;;;;;;2.22;1.35;;;7.40;99.90;;;7.44;100.00;100350.19;4767648;29;20051;-91
2020/12/14 02:31:12;;;;;;;4.72;2.15;;;7.80;99.90;;;7.37;100.00;100354.66;4789950;29;20492;-91
2020/12/14 02:33:38;;;;;;;4.30;1.77;;;7.40;99.90;;;7.36;100.00;100341.31;4786804;29;20050;-91
2020/12/14 02:36:06;;;;;;;2.67;1.50;;;7.80;99.90;;;7.40;100.00;100348.88;4824299;29;20031;-92
2020/12/14 02:38:34;;;;;;;3.17;1.48;;;7.80;99.90;;;7.35;100.00;100345.88;4816457;29;20047;-90
2020/12/14 02:41:00;;;;;;;2.78;1.58;;;7.50;99.90;;;7.40;100.00;100354.28;4818975;29;20449;-90
2020/12/14 02:43:31;;;;;;;3.22;1.60;;;7.50;99.90;;;7.48;100.00;100351.44;4818962;29;20034;-90
2020/12/14 02:45:57;;;;;;;4.57;1.23;;;7.50;99.90;;;7.49;100.00;100336.88;4818893;29;20090;-90
2020/12/14 02:48:23;;;;;;;2.72;1.30;;;7.50;99.90;;;7.45;100.00;100345.59;4817819;29;20060;-89
2020/12/14 02:50:49;;;;;;;1.70;1.52;;;7.50;99.90;;;7.45;100.00;100341.00;4816794;29;20038;-89
2020/12/14 02:53:17;;;;;;;2.38;1.30;;;7.50;99.90;;;7.40;100.00;100327.22;4817584;29;20042;-90
2020/12/14 02:55:43;;;;;;;3.45;2.13;;;7.60;99.90;;;7.55;100.00;100319.03;4817872;29;20035;-89
2020/12/14 02:58:09;;;;;;;1.48;1.30;;;7.50;99.90;;;7.62;100.00;100314.50;4814695;29;20475;-90
2020/12/14 03:00:35;;;;;;;2.20;1.27;;;7.60;99.90;;;7.56;100.00;100305.28;4803560;29;20030;-89
2020/12/14 03:03:06;;;;;;;3.05;1.73;;;7.60;99.90;;;7.49;100.00;100292.72;4827889;29;20038;-90
2020/12/14 03:05:37;;;;;;;2.38;1.25;;;7.60;99.90;;;7.48;100.00;100308.13;4802138;29;20047;-89
2020/12/14 03:08:03;;;;;;;4.55;1.45;;;7.50;99.90;;;7.66;100.00;100310.38;4815869;29;20478;-89
2020/12/14 03:10:32;;;;;;;1.48;1.30;;;7.50;99.90;;;7.78;100.00;100314.25;4814692;29;20051;-89
2020/12/14 03:13:03;;;;;;;2.72;1.40;;;7.60;99.90;;;7.69;100.00;100314.56;4813647;29;20038;-89
2020/12/14 03:15:29;;;;;;;6.32;2.38;;;7.60;99.90;;;7.67;100.00;100313.94;4821386;29;20485;-89
2020/12/14 03:18:15;;;;;;;5.45;1.13;;;7.70;99.90;;;7.68;100.00;100313.72;4832450;29;20120;-89
2020/12/14 03:20:50;;;;;;;6.35;1.40;;;7.90;99.90;;;7.63;100.00;100310.78;4829237;29;20047;-89
2020/12/14 03:23:27;;;;;;;;;;;7.60;99.90;;;7.68;100.00;100323.72;4806978;29;20034;-89
2020/12/14 03:25:56;;;;;;;3.65;2.47;;;8.10;99.90;;;7.70;100.00;100321.66;4801327;29;19925;-89
2020/12/14 03:28:36;;;;;;;6.00;1.58;;;7.70;99.90;;;7.91;100.00;100313.50;4800682;29;20042;-89
2020/12/14 03:34:52;;;;;;;3.22;1.83;;;7.70;99.90;;;7.94;100.00;100307.69;4833877;29;20095;-90
2020/12/14 03:37:30;;;;;;;1.95;1.65;;;7.80;99.90;;;7.88;100.00;100303.06;4800526;29;20030;-89
2020/12/14 03:40:01;;;;;;;8.30;2.55;;;8.20;99.90;;;7.73;100.00;100310.44;4800774;29;20406;-89
2020/12/14 03:42:33;;;;;;;2.38;1.65;;;7.70;99.90;;;7.90;100.00;100303.72;4816313;29;20044;-90
2020/12/14 03:45:19;;;;;;;2.00;1.25;;;7.90;99.90;;;8.00;100.00;100294.22;4815290;29;20406;-89
2020/12/14 03:48:01;;;;;;;1.48;1.38;;;8.00;99.90;;;8.06;100.00;100295.28;4785825;29;20086;-89
2020/12/14 03:51:10;;;;;;;2.05;1.50;;;7.90;99.90;;;8.02;100.00;100304.81;4773348;29;20042;-89
2020/12/14 03:53:52;;;;;;;1.92;1.65;;;7.90;99.90;;;8.05;100.00;100301.72;4816197;29;20042;-89
2020/12/14 03:56:44;;;;;;;;;;;;;;;;;;;;;
2020/12/14 04:18:21;;;;;;;;;;;;;;;;;;;;;
2020/12/14 04:25:47;;;;;;;1.20;1.10;;;7.90;99.90;;;8.02;100.00;100288.56;4812060;29;20055;-89
2020/12/14 04:35:22;;;;;;;1.60;1.50;;;7.80;99.90;;;7.92;100.00;100288.06;4787682;29;20038;-90
2020/12/14 04:37:57;;;;;;;1.58;1.48;;;7.90;99.90;;;7.96;100.00;100284.78;4786295;29;20070;-89
2020/12/14 04:40:38;;;;;;;2.13;1.80;;;7.90;99.90;;;7.91;100.00;100278.28;4782776;29;20121;-89
2020/12/14 04:47:06;;;;;;;2.33;2.10;;;8.00;99.90;;;7.87;100.00;100258.03;4815057;29;20563;-90
2020/12/14 04:50:01;;;;;;;2.97;2.33;;;7.90;99.90;;;7.95;100.00;100247.03;4767530;29;20035;-89
2020/12/14 04:53:40;;;;;;;2.17;1.98;;;8.10;99.90;;;7.88;100.00;100216.38;4776151;29;20149;-89
2020/12/14 04:59:53;;;;;;;2.95;2.67;;;8.00;99.90;;;7.98;100.00;100266.47;4782234;30;20066;-90
2020/12/14 05:02:41;;;;;;;4.82;3.42;;;8.00;99.90;;;8.06;100.00;100278.19;4755273;30;20650;-90
2020/12/14 05:05:17;;;;;;;3.45;3.08;;;8.00;99.90;;;8.10;100.00;100269.47;4778253;29;20050;-89
2020/12/14 05:07:44;;;;;;;3.10;2.90;;;8.20;99.90;;;8.21;100.00;100266.19;4817414;29;20035;-90
2020/12/14 05:13:43;;;;;;;5.03;3.05;;;8.10;99.90;;;8.33;100.00;100258.38;4794534;29;20066;-90
2020/12/14 05:16:32;;;;;;;2.92;2.67;;;8.30;99.90;;;8.33;100.00;100256.50;4759098;29;20118;-90
2020/12/14 05:19:32;;;;;;;3.88;3.20;;;8.10;99.90;;;8.34;100.00;100258.19;4792616;29;20038;-90
2020/12/14 05:22:09;;;;;;;3.60;3.30;;;8.20;99.90;;;8.30;100.00;100262.28;4776695;29;20071;-90
2020/12/14 05:25:07;;;;;;;3.15;2.92;;;8.20;99.90;;;8.31;100.00;100258.56;4791582;29;20034;-90
2020/12/14 05:27:43;;;;;;;4.15;3.42;;;8.30;99.90;;;8.40;100.00;100261.09;4818434;29;20045;-90
2020/12/14 05:30:16;;;;;;;4.22;3.53;;;8.30;99.90;;;8.44;100.00;100251.53;4788750;29;20038;-90
2020/12/14 05:32:59;;;;;;;3.65;3.35;;;8.30;99.90;;;8.40;100.00;100255.69;4788275;29;20057;-89
2020/12/14 05:35:36;;;;;;;3.92;3.63;;;8.30;99.90;;;8.41;100.00;100254.66;4789867;29;20049;-90
2020/12/14 05:38:37;;;;;;;5.18;3.75;;;8.30;99.90;;;8.46;100.00;100258.44;4804064;29;20155;-91
2020/12/14 05:41:20;;;;;;;4.45;4.05;;;8.40;99.90;;;8.44;100.00;100268.66;4777260;29;20057;-90
2020/12/14 05:44:21;;;;;;;3.85;3.55;;;8.40;99.90;;;8.59;100.00;100268.50;4804167;29;20038;-90
2020/12/14 05:47:27;;;;;;;5.20;4.13;;;8.50;99.90;;;8.66;100.00;100263.97;4794647;29;20100;-92
2020/12/14 05:50:18;;;;;;;4.68;4.28;;;8.50;99.90;;;8.55;100.00;100254.53;4794258;29;20031;-90
2020/12/14 05:57:05;;;;;;;5.28;4.78;;;8.50;99.90;;;8.61;100.00;100250.16;4817765;29;20501;-89
2020/12/14 06:04:11;;;;;;;5.82;5.32;;;8.50;99.90;;;8.63;100.00;100243.50;4819392;29;20099;-88
2020/12/14 06:06:54;;;;;;;6.30;5.28;;;8.60;99.90;;;8.66;100.00;100239.53;4820007;29;20054;-90
2020/12/14 06:09:26;;;;;;;7.40;6.25;;;8.60;99.90;;;8.70;100.00;100238.91;4797889;29;20034;-90
2020/12/14 06:11:57;;;;;;;7.32;6.63;;;8.40;99.90;;;8.74;100.00;100239.34;4806610;29;20019;-93
2020/12/14 06:14:25;;;;;;;6.88;6.28;;;8.60;99.90;;;8.69;100.00;100236.44;4828791;29;20082;-92
2020/12/14 06:16:53;;;;;;;6.93;6.28;;;9.00;99.90;;;8.67;100.00;100238.50;4828160;29;20091;-90
2020/12/14 06:19:26;;;;;;;7.90;7.13;;;8.60;99.90;;;8.76;100.00;100231.84;4799793;29;20038;-92
2020/12/14 06:27:15;;;;;;;8.40;6.82;;;8.80;99.90;;;8.90;100.00;100249.84;4806358;29;20097;-90
2020/12/14 06:29:44;;;;;;;8.30;6.63;;;8.80;99.90;;;8.94;100.00;100253.81;4812087;29;20062;-90
2020/12/14 06:32:47;;;;;;;6.88;6.18;;;8.90;99.90;;;8.88;100.00;100245.66;4813449;29;20034;-92
2020/12/14 06:35:16;;;;;;;7.60;6.80;;;8.80;99.90;;;8.97;100.00;100256.13;4812224;29;20038;-87
2020/12/14 06:37:50;;;;;;;8.73;6.95;;;9.00;99.90;;;9.14;100.00;100244.91;4812710;29;20039;-88
2020/12/14 06:40:17;;;;;;;8.15;6.97;;;9.10;99.90;;;9.10;100.00;100260.75;4814105;29;20050;-90
2020/12/14 06:42:43;;;;;;;6.82;6.18;;;9.40;99.90;;;9.06;100.00;100260.31;4835430;29;20022;-90
2020/12/14 06:46:12;;;;;;;7.68;6.75;;;9.60;99.90;;;9.14;100.00;100253.06;4819966;29;20030;-88
2020/12/14 06:55:48;;;;;;;6.68;6.07;;;8.50;99.90;;;9.23;100.00;100259.97;4838398;29;20044;-90
2020/12/14 06:58:44;;;;;;;7.65;6.95;;;9.10;99.90;;;9.14;100.00;100248.47;4820129;29;20050;-88
2020/12/14 07:01:41;;;;;;;6.90;6.30;;;9.10;99.90;;;9.19;100.00;100251.38;4819288;29;20042;-89
2020/12/14 07:08:36;;;;;;;6.43;5.82;;;9.50;99.90;;;9.24;100.00;100234.47;4821558;29;20053;-90
2020/12/14 07:18:21;;;;;;;8.57;6.28;;;9.40;99.90;;;9.38;100.00;100260.59;4824328;29;20049;-90
2020/12/14 07:25:05;;;;;;;7.45;6.65;;;9.40;99.90;;;9.42;100.00;100265.41;4838614;29;20044;-90
2020/12/14 07:32:01;;;;;;;7.45;6.25;;;9.30;99.90;;;9.57;100.00;100278.81;4817419;29;20058;-89
2020/12/14 07:39:03;;;;;;;6.97;6.15;;;9.60;99.90;;;9.47;100.00;100289.25;4787445;30;20141;-90
2020/12/14 07:41:56;;;;;;;8.75;7.40;;;9.60;99.90;;;9.53;100.00;100274.81;4768400;30;20039;-90
2020/12/14 07:44:46;;;;;;;7.05;6.35;;;9.40;99.90;;;9.52;100.00;100277.75;4760821;30;20040;-89
2020/12/14 08:27:57;;;;;;;4.60;3.55;;;10.10;99.90;;;10.00;100.00;100306.41;4821925;29;20487;-91
2020/12/14 08:30:43;;;;;;;3.85;3.55;;;10.10;99.90;;;10.15;100.00;100314.38;4805621;29;20045;-91
2020/12/14 09:22:19;;;;;;;2.55;2.00;;;11.10;99.90;;;10.78;100.00;100374.56;721704;24;20338;-88
2020/12/14 09:25:08;;;;;;;3.55;2.13;;;11.10;99.90;;;10.78;100.00;100380.00;4889216;29;20057;-92
2020/12/14 09:34:29;;;;;;;3.60;1.85;;;11.10;99.90;;;10.94;100.00;100379.56;4877156;29;20065;-90
2020/12/14 09:37:03;;;;;;;2.10;1.90;;;11.10;99.90;;;10.96;100.00;100380.16;4859586;29;20460;-90
2020/12/14 09:39:33;;;;;;;5.95;2.42;;;11.10;99.90;;;10.87;100.00;100378.72;4857055;29;20041;-91
2020/12/14 09:42:06;;;;;;;2.22;1.60;;;11.10;99.90;;;10.85;100.00;100380.81;4873890;29;20090;-92
2020/12/14 09:45:03;;;;;;;3.60;1.80;;;11.00;99.90;;;10.75;100.00;100396.75;4858267;29;20105;-92
2020/12/14 09:51:17;;;;;;;2.13;1.70;;;11.10;99.90;;;11.42;98.67;100393.59;4874614;29;20080;-90
2020/12/14 09:58:30;;;;;;;2.67;1.50;;;11.40;99.90;;;11.21;98.25;100383.84;4873587;29;20060;-91
2020/12/14 10:03:32;;;;;;;2.95;1.83;;;11.40;99.90;;;11.23;98.81;100383.63;4999011;23;20065;-91
2020/12/14 10:06:00;;;;;;;2.35;1.50;;;11.30;99.90;;;11.32;99.27;100385.03;4855745;29;20045;-92
2020/12/14 10:19:11;;;;;;;6.38;1.67;;;11.90;99.90;;;11.56;97.34;100384.28;5404541;24;20107;-90
2020/12/14 10:29:45;;;;;;;2.05;1.88;;;11.80;99.90;;;11.54;97.41;100402.75;4756567;30;20031;-92
2020/12/14 10:32:20;;;;;;;2.20;1.80;;;11.90;99.90;;;11.68;97.22;100400.81;4779660;30;20064;-91
2020/12/14 10:41:24;;;;;;;3.10;1.60;;;12.00;99.90;;;11.83;95.39;100420.47;4975557;23;20056;-93
2020/12/14 14:51:26;;;;;;;4.03;2.40;;;12.30;99.90;;;11.93;92.17;100510.84;4827237;29;20077;-92
2020/12/14 14:53:55;;;;;;;8.88;2.22;;;12.30;99.90;;;11.86;93.08;100510.00;4797283;29;20300;-92
2020/12/14 14:56:56;;;;;;;5.57;2.40;;;12.20;99.90;;;11.76;92.37;100508.81;4813281;29;20047;-93
2020/12/14 14:59:29;;;;;;;9.45;3.03;;;12.20;99.90;;;11.79;92.89;100506.50;4800900;29;20039;-93
2020/12/14 15:08:38;;;;;;;4.40;3.13;;;12.10;99.90;;;11.84;91.62;100523.06;4964935;24;20041;-93
2020/12/14 16:39:51;;;;;;;8.77;2.45;;;10.70;99.90;;;10.40;97.24;100529.50;2341962;23;21617;31
2020/12/14 16:42:56;;;;;;;7.95;2.10;;;10.60;99.90;;;10.26;97.52;100534.09;4881648;23;20054;31
2020/12/14 16:48:46;;;;;;;6.73;3.20;;;10.30;99.90;;;10.23;98.04;100536.38;4833964;29;20167;-91
2020/12/14 16:51:42;;;;;;;4.80;2.30;;;10.20;99.90;;;10.11;98.33;100531.50;4828040;29;20111;-91
2020/12/14 22:03:39;;;;;;;8.10;4.50;;;9.90;99.90;;;9.76;100.00;100541.63;777575;23;20447;-93
2020/12/14 22:06:49;;;;;;;7.38;5.35;;;9.90;99.90;;;9.74;100.00;100540.16;4874897;29;20112;-94
2020/12/14 22:10:30;;;;;;;8.43;4.55;;;9.90;99.90;;;9.70;100.00;100528.88;4787132;30;20070;-92
2020/12/14 22:42:47;;;;;;;7.32;4.75;;;9.50;99.90;;;9.52;100.00;100525.81;4729971;30;20048;-90
2020/12/14 22:45:16;;;;;;;6.93;5.05;;;9.60;99.90;;;9.50;100.00;100527.91;4794989;29;20094;-90
2020/12/14 22:48:13;;;;;;;8.40;4.60;;;9.50;99.90;;;9.45;100.00;100530.41;4807770;29;20058;-90
2020/12/14 22:54:48;;;;;;;7.35;4.65;;;9.50;99.90;;;9.40;100.00;100543.72;4840467;29;20048;-91
2020/12/14 22:57:57;;;;;;;8.43;4.45;;;9.50;99.90;;;9.50;100.00;100541.50;4787859;29;20043;-91
2020/12/14 23:00:49;;;;;;;8.20;4.97;;;9.50;99.90;;;9.53;100.00;100522.06;4778862;30;20047;-91
